createdAt,value
2017-03-11T00:00:11.876Z,0
2017-03-11T00:01:22.754Z,0
2017-03-11T00:02:33.466Z,0
2017-03-11T00:03:44.339Z,0
2017-03-11T00:04:55.211Z,0
2017-03-11T00:06:05.671Z,0
2017-03-11T00:07:15.708Z,0
2017-03-11T00:08:26.799Z,0
2017-03-11T00:09:37.682Z,0
2017-03-11T00:10:48.536Z,0
2017-03-11T00:11:59.010Z,0
2017-03-11T00:13:09.889Z,0
2017-03-11T00:14:20.189Z,0
2017-03-11T00:15:30.650Z,0
2017-03-11T00:16:41.107Z,0
2017-03-11T00:17:51.562Z,0
2017-03-11T00:19:02.061Z,0
2017-03-11T00:20:12.374Z,0
2017-03-11T00:21:22.839Z,0
2017-03-11T00:22:32.490Z,0
2017-03-11T00:23:42.921Z,0
2017-03-11T00:24:53.391Z,0
2017-03-11T00:26:04.086Z,0
2017-03-11T00:27:14.966Z,0
2017-03-11T00:28:25.828Z,0
2017-03-11T00:29:36.285Z,0
2017-03-11T00:30:47.172Z,0
2017-03-11T00:31:58.377Z,0
2017-03-11T00:33:08.896Z,0
2017-03-11T00:34:19.808Z,0
2017-03-11T00:35:30.310Z,0
2017-03-11T00:36:40.765Z,0
2017-03-11T00:37:51.917Z,0
2017-03-11T00:39:02.374Z,0
2017-03-11T00:40:13.219Z,0
2017-03-11T00:41:24.074Z,0
2017-03-11T00:42:34.925Z,0
2017-03-11T00:43:46.190Z,0
2017-03-11T00:44:57.033Z,0
2017-03-11T00:46:07.468Z,0
2017-03-11T00:47:17.917Z,0
2017-03-11T00:48:28.754Z,0
2017-03-11T00:49:39.146Z,0
2017-03-11T00:50:49.604Z,0
2017-03-11T00:52:00.470Z,0
2017-03-11T00:53:11.174Z,0
2017-03-11T00:54:21.625Z,0
2017-03-11T00:55:32.029Z,0
2017-03-11T00:56:42.880Z,0
2017-03-11T00:57:53.337Z,0
2017-03-11T00:59:03.788Z,0
2017-03-11T01:00:14.646Z,0
2017-03-11T01:01:25.905Z,0
2017-03-11T01:02:36.838Z,0
2017-03-11T01:03:47.733Z,0
2017-03-11T01:04:58.199Z,0
2017-03-11T01:06:09.051Z,0
2017-03-11T01:07:20.173Z,0
2017-03-11T01:08:31.030Z,0
2017-03-11T01:09:41.881Z,0
2017-03-11T01:10:52.314Z,0
2017-03-11T01:12:03.171Z,0
2017-03-11T01:13:14.253Z,0
2017-03-11T01:14:25.120Z,0
2017-03-11T01:15:35.574Z,0
2017-03-11T01:16:46.441Z,0
2017-03-11T01:17:57.335Z,0
2017-03-11T01:19:08.448Z,0
2017-03-11T01:20:18.489Z,0
2017-03-11T01:21:29.331Z,0
2017-03-11T01:22:40.186Z,0
2017-03-11T01:23:51.040Z,0
2017-03-11T01:25:02.160Z,0
2017-03-11T01:26:13.005Z,0
2017-03-11T01:27:23.861Z,0
2017-03-11T01:28:33.501Z,0
2017-03-11T01:29:44.387Z,0
2017-03-11T01:30:55.507Z,0
2017-03-11T01:32:06.357Z,0
2017-03-11T01:33:17.236Z,0
2017-03-11T01:34:27.695Z,0
2017-03-11T01:35:38.557Z,0
2017-03-11T01:36:49.658Z,0
2017-03-11T01:38:00.500Z,0
2017-03-11T01:39:11.324Z,0
2017-03-11T01:40:22.172Z,0
2017-03-11T01:41:32.640Z,0
2017-03-11T01:42:43.350Z,0
2017-03-11T01:43:54.211Z,0
2017-03-11T01:45:04.776Z,0
2017-03-11T01:46:15.256Z,0
2017-03-11T01:47:26.109Z,0
2017-03-11T01:48:37.209Z,0
2017-03-11T01:49:48.048Z,0
2017-03-11T01:50:58.899Z,0
2017-03-11T01:52:09.744Z,0
2017-03-11T01:53:20.176Z,0
2017-03-11T01:54:30.896Z,0
2017-03-11T01:55:41.376Z,0
2017-03-11T01:56:52.227Z,0
2017-03-11T01:58:02.691Z,0
2017-03-11T01:59:13.533Z,0
2017-03-11T02:00:24.220Z,0
2017-03-11T02:01:35.081Z,0
2017-03-11T02:02:45.939Z,0
2017-03-11T02:03:56.807Z,0
2017-03-11T02:05:07.248Z,0
2017-03-11T02:06:17.151Z,0
2017-03-11T02:07:28.010Z,0
2017-03-11T02:08:38.852Z,0
2017-03-11T02:09:49.690Z,0
2017-03-11T02:11:00.571Z,0
2017-03-11T02:12:11.278Z,0
2017-03-11T02:13:21.735Z,0
2017-03-11T02:14:32.592Z,0
2017-03-11T02:15:43.462Z,0
2017-03-11T02:16:54.358Z,0
2017-03-11T02:18:05.084Z,0
2017-03-11T02:19:16.105Z,0
2017-03-11T02:20:26.966Z,0
2017-03-11T02:21:37.847Z,0
2017-03-11T02:22:48.701Z,0
2017-03-11T02:23:59.385Z,0
2017-03-11T02:25:10.231Z,0
2017-03-11T02:26:21.093Z,0
2017-03-11T02:27:31.147Z,0
2017-03-11T02:28:41.187Z,0
2017-03-11T02:29:52.288Z,0
2017-03-11T02:31:02.752Z,0
2017-03-11T02:32:12.800Z,0
2017-03-11T02:33:23.236Z,0
2017-03-11T02:34:34.114Z,0
2017-03-11T02:35:44.413Z,0
2017-03-11T02:36:55.279Z,0
2017-03-11T02:38:06.134Z,0
2017-03-11T02:39:16.189Z,0
2017-03-11T02:40:27.037Z,0
2017-03-11T02:41:37.769Z,0
2017-03-11T02:42:48.614Z,0
2017-03-11T02:43:59.462Z,0
2017-03-11T02:45:10.313Z,0
2017-03-11T02:46:21.165Z,0
2017-03-11T02:47:32.317Z,0
2017-03-11T02:48:42.758Z,0
2017-03-11T02:49:53.219Z,0
2017-03-11T02:51:04.083Z,0
2017-03-11T02:52:14.131Z,0
2017-03-11T02:53:25.248Z,0
2017-03-11T02:54:35.699Z,0
2017-03-11T02:55:46.141Z,0
2017-03-11T02:56:56.989Z,0
2017-03-11T02:58:07.846Z,0
2017-03-11T02:59:18.589Z,0
2017-03-11T03:00:29.030Z,0
2017-03-11T03:01:39.862Z,0
2017-03-11T03:02:49.929Z,0
2017-03-11T03:04:00.361Z,0
2017-03-11T03:05:10.685Z,0
2017-03-11T03:06:21.568Z,0
2017-03-11T03:07:32.013Z,0
2017-03-11T03:08:42.858Z,0
2017-03-11T03:09:53.350Z,0
2017-03-11T03:11:04.435Z,0
2017-03-11T03:12:15.310Z,0
2017-03-11T03:13:25.766Z,0
2017-03-11T03:14:36.243Z,0
2017-03-11T03:15:46.685Z,0
2017-03-11T03:16:57.779Z,0
2017-03-11T03:18:07.867Z,0
2017-03-11T03:19:18.077Z,0
2017-03-11T03:20:28.519Z,0
2017-03-11T03:21:39.001Z,0
2017-03-11T03:22:49.279Z,0
2017-03-11T03:24:00.129Z,0
2017-03-11T03:25:10.971Z,0
2017-03-11T03:26:21.003Z,0
2017-03-11T03:27:31.440Z,0
2017-03-11T03:28:42.537Z,0
2017-03-11T03:29:53.382Z,0
2017-03-11T03:31:04.233Z,0
2017-03-11T03:32:15.084Z,0
2017-03-11T03:33:25.155Z,0
2017-03-11T03:34:36.307Z,0
2017-03-11T03:35:47.689Z,0
2017-03-11T03:36:58.153Z,0
2017-03-11T03:38:08.982Z,0
2017-03-11T03:39:19.446Z,0
2017-03-11T03:40:30.166Z,0
2017-03-11T03:41:40.608Z,0
2017-03-11T03:42:51.456Z,0
2017-03-11T03:44:02.304Z,0
2017-03-11T03:45:12.755Z,0
2017-03-11T03:46:23.459Z,0
2017-03-11T03:47:34.294Z,0
2017-03-11T03:48:45.145Z,0
2017-03-11T03:49:55.599Z,0
2017-03-11T03:51:06.458Z,0
2017-03-11T03:52:17.549Z,0
2017-03-11T03:53:28.394Z,0
2017-03-11T03:54:38.837Z,0
2017-03-11T03:55:49.686Z,0
2017-03-11T03:56:59.731Z,0
2017-03-11T03:58:10.843Z,0
2017-03-11T03:59:21.690Z,0
2017-03-11T04:00:32.125Z,0
2017-03-11T04:01:42.576Z,0
2017-03-11T04:02:53.005Z,0
2017-03-11T04:04:04.163Z,0
2017-03-11T04:05:14.592Z,0
2017-03-11T04:06:25.447Z,0
2017-03-11T04:07:36.275Z,0
2017-03-11T04:08:47.140Z,0
2017-03-11T04:09:58.250Z,0
2017-03-11T04:11:09.081Z,0
2017-03-11T04:12:19.110Z,0
2017-03-11T04:13:29.533Z,0
2017-03-11T04:14:39.994Z,0
2017-03-11T04:15:50.694Z,0
2017-03-11T04:17:00.727Z,0
2017-03-11T04:18:11.581Z,0
2017-03-11T04:19:22.455Z,0
2017-03-11T04:20:33.316Z,0
2017-03-11T04:21:44.039Z,0
2017-03-11T04:22:54.481Z,0
2017-03-11T04:24:04.928Z,0
2017-03-11T04:25:15.815Z,0
2017-03-11T04:26:26.256Z,0
2017-03-11T04:27:36.150Z,0
2017-03-11T04:28:46.205Z,0
2017-03-11T04:29:57.050Z,0
2017-03-11T04:31:07.505Z,0
2017-03-11T04:32:18.349Z,0
2017-03-11T04:33:29.058Z,0
2017-03-11T04:34:39.908Z,0
2017-03-11T04:35:49.955Z,0
2017-03-11T04:37:00.387Z,0
2017-03-11T04:38:10.875Z,0
2017-03-11T04:39:21.159Z,0
2017-03-11T04:40:31.210Z,0
2017-03-11T04:41:41.642Z,0
2017-03-11T04:42:52.122Z,0
2017-03-11T04:44:02.967Z,0
2017-03-11T04:45:14.071Z,0
2017-03-11T04:46:24.922Z,0
2017-03-11T04:47:35.811Z,0
2017-03-11T04:48:46.672Z,0
2017-03-11T04:49:56.746Z,0
2017-03-11T04:51:07.466Z,0
2017-03-11T04:52:18.324Z,0
2017-03-11T04:53:28.772Z,0
2017-03-11T04:54:39.611Z,0
2017-03-11T04:55:49.242Z,0
2017-03-11T04:57:00.365Z,0
2017-03-11T04:58:10.828Z,0
2017-03-11T04:59:21.265Z,0
2017-03-11T05:00:31.731Z,0
2017-03-11T05:01:41.780Z,0
2017-03-11T05:02:52.884Z,0
2017-03-11T05:04:03.345Z,0
2017-03-11T05:05:14.203Z,0
2017-03-11T05:06:25.076Z,0
2017-03-11T05:07:35.930Z,0
2017-03-11T05:08:47.034Z,0
2017-03-11T05:09:57.885Z,0
2017-03-11T05:11:08.749Z,0
2017-03-11T05:12:19.623Z,0
2017-03-11T05:13:30.467Z,0
2017-03-11T05:14:41.578Z,0
2017-03-11T05:15:52.292Z,0
2017-03-11T05:17:03.140Z,0
2017-03-11T05:18:13.984Z,0
2017-03-11T05:19:24.051Z,0
2017-03-11T05:20:34.762Z,0
2017-03-11T05:21:45.191Z,0
2017-03-11T05:22:56.032Z,0
2017-03-11T05:24:06.877Z,0
2017-03-11T05:25:17.339Z,0
2017-03-11T05:26:28.055Z,0
2017-03-11T05:27:38.105Z,0
2017-03-11T05:28:48.535Z,0
2017-03-11T05:29:58.561Z,0
2017-03-11T05:31:08.994Z,0
2017-03-11T05:32:19.693Z,0
2017-03-11T05:33:30.144Z,0
2017-03-11T05:34:40.576Z,0
2017-03-11T05:35:51.028Z,0
2017-03-11T05:37:01.503Z,0
2017-03-11T05:38:11.796Z,0
2017-03-11T05:39:22.640Z,0
2017-03-11T05:40:33.478Z,0
2017-03-11T05:41:43.511Z,0
2017-03-11T05:42:53.540Z,0
2017-03-11T05:44:04.237Z,0
2017-03-11T05:45:14.698Z,4
2017-03-11T05:46:25.156Z,4
2017-03-11T05:47:35.191Z,4
2017-03-11T05:48:45.638Z,4
2017-03-11T05:49:55.936Z,4
2017-03-11T05:51:06.778Z,0
2017-03-11T05:52:17.233Z,0
2017-03-11T05:53:27.686Z,0
2017-03-11T05:54:38.134Z,0
2017-03-11T05:55:48.833Z,0
2017-03-11T05:56:59.667Z,4
2017-03-11T05:58:10.514Z,4
2017-03-11T05:59:20.954Z,4
2017-03-11T06:00:31.396Z,4
2017-03-11T06:01:42.413Z,4
2017-03-11T06:02:53.273Z,4
2017-03-11T06:04:03.735Z,0
2017-03-11T06:05:14.160Z,4
2017-03-11T06:06:24.221Z,4
2017-03-11T06:07:34.502Z,4
2017-03-11T06:08:44.576Z,4
2017-03-11T06:09:55.427Z,4
2017-03-11T06:11:06.281Z,4
2017-03-11T06:12:17.126Z,4
2017-03-11T06:13:28.221Z,4
2017-03-11T06:14:38.266Z,8
2017-03-11T06:15:49.116Z,4
2017-03-11T06:16:59.599Z,4
2017-03-11T06:18:10.067Z,4
2017-03-11T06:19:20.355Z,4
2017-03-11T06:20:30.793Z,4
2017-03-11T06:21:41.638Z,4
2017-03-11T06:22:52.496Z,8
2017-03-11T06:24:02.932Z,8
2017-03-11T06:25:14.048Z,8
2017-03-11T06:26:24.109Z,8
2017-03-11T06:27:34.567Z,8
2017-03-11T06:28:45.430Z,4
2017-03-11T06:29:55.894Z,4
2017-03-11T06:31:07.014Z,8
2017-03-11T06:32:17.462Z,8
2017-03-11T06:33:27.917Z,8
2017-03-11T06:34:38.749Z,8
2017-03-11T06:35:49.233Z,8
2017-03-11T06:36:59.946Z,8
2017-03-11T06:38:10.390Z,8
2017-03-11T06:39:21.234Z,8
2017-03-11T06:40:31.719Z,12
2017-03-11T06:41:42.184Z,8
2017-03-11T06:42:53.283Z,8
2017-03-11T06:44:03.332Z,8
2017-03-11T06:45:14.211Z,12
2017-03-11T06:46:24.662Z,12
2017-03-11T06:47:35.103Z,12
2017-03-11T06:48:46.207Z,8
2017-03-11T06:49:57.056Z,12
2017-03-11T06:51:07.897Z,12
2017-03-11T06:52:18.336Z,12
2017-03-11T06:53:29.181Z,12
2017-03-11T06:54:39.085Z,12
2017-03-11T06:55:49.986Z,16
2017-03-11T06:57:00.829Z,12
2017-03-11T06:58:11.312Z,12
2017-03-11T06:59:22.170Z,16
2017-03-11T07:00:32.928Z,16
2017-03-11T07:01:43.773Z,16
2017-03-11T07:02:54.620Z,16
2017-03-11T07:04:05.097Z,16
2017-03-11T07:05:15.572Z,12
2017-03-11T07:06:26.771Z,16
2017-03-11T07:07:37.212Z,16
2017-03-11T07:08:47.328Z,16
2017-03-11T07:09:57.770Z,16
2017-03-11T07:11:07.808Z,20
2017-03-11T07:12:18.924Z,16
2017-03-11T07:13:29.410Z,16
2017-03-11T07:14:39.880Z,20
2017-03-11T07:15:50.738Z,20
2017-03-11T07:17:00.812Z,20
2017-03-11T07:18:11.101Z,20
2017-03-11T07:19:21.561Z,24
2017-03-11T07:20:32.431Z,20
2017-03-11T07:21:42.508Z,20
2017-03-11T07:22:52.949Z,20
2017-03-11T07:24:03.695Z,24
2017-03-11T07:25:14.542Z,20
2017-03-11T07:26:25.410Z,24
2017-03-11T07:27:36.373Z,24
2017-03-11T07:28:46.814Z,24
2017-03-11T07:29:57.605Z,24
2017-03-11T07:31:08.449Z,24
2017-03-11T07:32:18.495Z,24
2017-03-11T07:33:28.962Z,24
2017-03-11T07:34:39.054Z,28
2017-03-11T07:35:49.380Z,24
2017-03-11T07:36:59.837Z,24
2017-03-11T07:38:10.277Z,28
2017-03-11T07:39:21.170Z,28
2017-03-11T07:40:31.655Z,28
2017-03-11T07:41:42.366Z,24
2017-03-11T07:42:52.814Z,24
2017-03-11T07:44:03.268Z,28
2017-03-11T07:45:13.745Z,28
2017-03-11T07:46:24.202Z,28
2017-03-11T07:47:34.523Z,28
2017-03-11T07:48:44.976Z,28
2017-03-11T07:49:55.057Z,28
2017-03-11T07:51:05.534Z,28
2017-03-11T07:52:16.468Z,28
2017-03-11T07:53:27.575Z,28
2017-03-11T07:54:38.449Z,28
2017-03-11T07:55:49.297Z,32
2017-03-11T07:57:00.164Z,28
2017-03-11T07:58:11.037Z,32
2017-03-11T07:59:21.739Z,32
2017-03-11T08:00:31.831Z,28
2017-03-11T08:01:42.682Z,32
2017-03-11T08:02:52.355Z,32
2017-03-11T08:04:03.205Z,32
2017-03-11T08:05:13.552Z,32
2017-03-11T08:06:23.995Z,36
2017-03-11T08:07:33.636Z,36
2017-03-11T08:08:44.519Z,32
2017-03-11T08:09:55.249Z,36
2017-03-11T08:11:05.945Z,36
2017-03-11T08:12:16.390Z,36
2017-03-11T08:13:26.485Z,36
2017-03-11T08:14:37.358Z,40
2017-03-11T08:15:47.786Z,40
2017-03-11T08:16:58.489Z,40
2017-03-11T08:18:09.325Z,40
2017-03-11T08:19:20.234Z,36
2017-03-11T08:20:31.079Z,36
2017-03-11T08:21:40.728Z,36
2017-03-11T08:22:51.021Z,40
2017-03-11T08:24:00.595Z,40
2017-03-11T08:25:11.002Z,40
2017-03-11T08:26:21.758Z,40
2017-03-11T08:27:32.132Z,40
2017-03-11T08:28:42.737Z,44
2017-03-11T08:29:53.095Z,44
2017-03-11T08:31:03.847Z,44
2017-03-11T08:32:14.202Z,44
2017-03-11T08:33:24.964Z,40
2017-03-11T08:34:35.964Z,40
2017-03-11T08:35:46.309Z,44
2017-03-11T08:36:56.669Z,44
2017-03-11T08:38:07.037Z,44
2017-03-11T08:39:16.983Z,44
2017-03-11T08:40:27.207Z,44
2017-03-11T08:41:37.559Z,44
2017-03-11T08:42:48.330Z,44
2017-03-11T08:43:59.089Z,44
2017-03-11T08:45:09.458Z,44
2017-03-11T08:46:19.665Z,44
2017-03-11T08:47:30.417Z,44
2017-03-11T08:48:40.376Z,44
2017-03-11T08:49:50.335Z,44
2017-03-11T08:50:59.899Z,44
2017-03-11T08:52:10.923Z,48
2017-03-11T08:53:21.291Z,44
2017-03-11T08:54:30.846Z,48
2017-03-11T08:55:40.849Z,48
2017-03-11T08:56:51.572Z,52
2017-03-11T08:58:02.571Z,48
2017-03-11T08:59:13.336Z,52
2017-03-11T09:00:23.735Z,56
2017-03-11T09:01:34.106Z,56
2017-03-11T09:02:44.453Z,56
2017-03-11T09:03:55.440Z,56
2017-03-11T09:05:05.794Z,56
2017-03-11T09:06:16.160Z,60
2017-03-11T09:07:26.929Z,56
2017-03-11T09:08:36.885Z,52
2017-03-11T09:09:47.138Z,52
2017-03-11T09:10:57.911Z,52
2017-03-11T09:12:08.275Z,52
2017-03-11T09:13:18.642Z,48
2017-03-11T09:14:29.420Z,48
2017-03-11T09:15:40.496Z,48
2017-03-11T09:16:50.874Z,52
2017-03-11T09:18:01.640Z,48
2017-03-11T09:19:12.060Z,48
2017-03-11T09:20:22.827Z,52
2017-03-11T09:21:33.888Z,52
2017-03-11T09:22:44.246Z,48
2017-03-11T09:23:54.605Z,52
2017-03-11T09:25:05.349Z,48
2017-03-11T09:26:16.122Z,48
2017-03-11T09:27:26.782Z,48
2017-03-11T09:28:37.154Z,48
2017-03-11T09:29:48.030Z,48
2017-03-11T09:30:58.796Z,48
2017-03-11T09:32:09.559Z,44
2017-03-11T09:33:20.587Z,48
2017-03-11T09:34:30.929Z,44
2017-03-11T09:35:41.668Z,48
2017-03-11T09:36:52.013Z,44
2017-03-11T09:38:02.026Z,44
2017-03-11T09:39:13.096Z,48
2017-03-11T09:40:23.460Z,44
2017-03-11T09:41:33.833Z,48
2017-03-11T09:42:44.599Z,48
2017-03-11T09:43:54.955Z,40
2017-03-11T09:45:05.969Z,44
2017-03-11T09:46:16.737Z,44
2017-03-11T09:47:27.476Z,44
2017-03-11T09:48:37.023Z,44
2017-03-11T09:49:47.783Z,44
2017-03-11T09:50:58.394Z,44
2017-03-11T09:52:08.749Z,44
2017-03-11T09:53:19.134Z,48
2017-03-11T09:54:29.505Z,48
2017-03-11T09:55:39.865Z,48
2017-03-11T09:56:50.461Z,48
2017-03-11T09:58:01.234Z,52
2017-03-11T09:59:12.002Z,48
2017-03-11T10:00:22.365Z,48
2017-03-11T10:01:33.127Z,52
2017-03-11T10:02:43.761Z,48
2017-03-11T10:03:54.548Z,48
2017-03-11T10:05:04.913Z,48
2017-03-11T10:06:15.678Z,48
2017-03-11T10:07:26.439Z,48
2017-03-11T10:08:37.454Z,48
2017-03-11T10:09:48.203Z,48
2017-03-11T10:10:58.955Z,48
2017-03-11T10:12:09.735Z,48
2017-03-11T10:13:20.136Z,48
2017-03-11T10:14:30.346Z,48
2017-03-11T10:15:40.712Z,48
2017-03-11T10:16:51.117Z,48
2017-03-11T10:18:01.082Z,48
2017-03-11T10:19:11.835Z,52
2017-03-11T10:20:22.499Z,52
2017-03-11T10:21:32.862Z,52
2017-03-11T10:22:42.443Z,56
2017-03-11T10:23:53.204Z,56
2017-03-11T10:25:03.169Z,56
2017-03-11T10:26:13.772Z,52
2017-03-11T10:27:24.110Z,56
2017-03-11T10:28:34.450Z,52
2017-03-11T10:29:44.785Z,52
2017-03-11T10:30:54.366Z,52
2017-03-11T10:32:04.590Z,52
2017-03-11T10:33:14.909Z,52
2017-03-11T10:34:25.262Z,52
2017-03-11T10:35:36.002Z,52
2017-03-11T10:36:46.375Z,52
2017-03-11T10:37:56.959Z,52
2017-03-11T10:39:06.544Z,56
2017-03-11T10:40:16.907Z,56
2017-03-11T10:41:26.857Z,56
2017-03-11T10:42:37.606Z,56
2017-03-11T10:43:47.851Z,56
2017-03-11T10:44:58.175Z,60
2017-03-11T10:46:08.497Z,60
2017-03-11T10:47:18.432Z,60
2017-03-11T10:48:28.776Z,56
2017-03-11T10:49:39.355Z,56
2017-03-11T10:50:49.285Z,56
2017-03-11T10:51:59.253Z,56
2017-03-11T10:53:08.803Z,56
2017-03-11T10:54:18.748Z,56
2017-03-11T10:55:29.325Z,56
2017-03-11T10:56:38.860Z,56
2017-03-11T10:57:48.799Z,56
2017-03-11T10:58:59.144Z,56
2017-03-11T11:00:09.885Z,60
2017-03-11T11:01:20.469Z,56
2017-03-11T11:02:31.224Z,56
2017-03-11T11:03:41.967Z,60
2017-03-11T11:04:52.703Z,60
2017-03-11T11:06:03.056Z,60
2017-03-11T11:07:14.037Z,64
2017-03-11T11:08:24.780Z,64
2017-03-11T11:09:35.506Z,64
2017-03-11T11:10:45.871Z,64
2017-03-11T11:11:56.297Z,60
2017-03-11T11:13:06.883Z,64
2017-03-11T11:14:16.831Z,68
2017-03-11T11:15:26.377Z,68
2017-03-11T11:16:37.112Z,60
2017-03-11T11:17:47.836Z,60
2017-03-11T11:18:58.015Z,64
2017-03-11T11:20:08.384Z,60
2017-03-11T11:21:17.938Z,64
2017-03-11T11:22:28.272Z,60
2017-03-11T11:23:38.653Z,60
2017-03-11T11:24:48.843Z,60
2017-03-11T11:25:58.940Z,60
2017-03-11T11:27:09.315Z,56
2017-03-11T11:28:20.083Z,52
2017-03-11T11:29:30.439Z,56
2017-03-11T11:30:41.481Z,60
2017-03-11T11:31:52.281Z,56
2017-03-11T11:33:03.043Z,56
2017-03-11T11:34:13.418Z,56
2017-03-11T11:35:24.212Z,56
2017-03-11T11:36:34.828Z,56
2017-03-11T11:37:44.823Z,56
2017-03-11T11:38:55.189Z,56
2017-03-11T11:40:05.157Z,56
2017-03-11T11:41:15.943Z,56
2017-03-11T11:42:25.793Z,56
2017-03-11T11:43:36.196Z,56
2017-03-11T11:44:46.559Z,56
2017-03-11T11:45:56.923Z,56
2017-03-11T11:47:07.672Z,52
2017-03-11T11:48:18.281Z,56
2017-03-11T11:49:29.053Z,56
2017-03-11T11:50:39.426Z,52
2017-03-11T11:51:49.775Z,52
2017-03-11T11:53:00.530Z,52
2017-03-11T11:54:10.747Z,52
2017-03-11T11:55:20.706Z,52
2017-03-11T11:56:30.655Z,52
2017-03-11T11:57:41.426Z,48
2017-03-11T11:58:51.778Z,52
2017-03-11T12:00:02.406Z,52
2017-03-11T12:01:12.786Z,48
2017-03-11T12:02:23.209Z,48
2017-03-11T12:03:33.968Z,48
2017-03-11T12:04:44.335Z,44
2017-03-11T12:05:54.944Z,48
2017-03-11T12:07:05.718Z,48
2017-03-11T12:08:15.302Z,44
2017-03-11T12:09:26.048Z,48
2017-03-11T12:10:36.461Z,44
2017-03-11T12:11:46.658Z,44
2017-03-11T12:12:56.996Z,48
2017-03-11T12:14:07.753Z,44
2017-03-11T12:15:18.128Z,44
2017-03-11T12:16:28.504Z,44
2017-03-11T12:17:39.138Z,44
2017-03-11T12:18:48.744Z,40
2017-03-11T12:19:59.078Z,44
2017-03-11T12:21:09.452Z,40
2017-03-11T12:22:19.851Z,44
2017-03-11T12:23:30.473Z,44
2017-03-11T12:24:40.415Z,44
2017-03-11T12:25:50.793Z,44
2017-03-11T12:27:01.567Z,48
2017-03-11T12:28:11.524Z,48
2017-03-11T12:29:22.133Z,44
2017-03-11T12:30:32.477Z,48
2017-03-11T12:31:43.257Z,48
2017-03-11T12:32:53.637Z,44
2017-03-11T12:34:03.999Z,48
2017-03-11T12:35:14.712Z,48
2017-03-11T12:36:25.481Z,48
2017-03-11T12:37:35.887Z,48
2017-03-11T12:38:46.652Z,48
2017-03-11T12:39:57.447Z,48
2017-03-11T12:41:08.095Z,52
2017-03-11T12:42:18.844Z,48
2017-03-11T12:43:29.590Z,48
2017-03-11T12:44:39.945Z,48
2017-03-11T12:45:49.897Z,44
2017-03-11T12:47:00.915Z,44
2017-03-11T12:48:11.660Z,48
2017-03-11T12:49:21.609Z,44
2017-03-11T12:50:31.565Z,48
2017-03-11T12:51:41.133Z,52
2017-03-11T12:52:50.562Z,48
2017-03-11T12:54:00.528Z,48
2017-03-11T12:55:10.499Z,48
2017-03-11T12:56:20.461Z,60
2017-03-11T12:57:30.812Z,60
2017-03-11T12:58:41.414Z,60
2017-03-11T12:59:51.392Z,56
2017-03-11T13:01:01.385Z,52
2017-03-11T13:02:12.131Z,52
2017-03-11T13:03:22.105Z,56
2017-03-11T13:04:32.306Z,60
2017-03-11T13:05:42.278Z,52
2017-03-11T13:06:52.258Z,48
2017-03-11T13:08:01.418Z,48
2017-03-11T13:09:11.759Z,48
2017-03-11T13:10:26.927Z,44
2017-03-11T13:11:36.892Z,44
2017-03-11T13:12:46.832Z,44
2017-03-11T13:13:56.777Z,52
2017-03-11T13:15:06.713Z,48
2017-03-11T13:16:16.947Z,44
2017-03-11T13:17:27.302Z,44
2017-03-11T13:18:36.457Z,48
2017-03-11T13:19:46.787Z,48
2017-03-11T13:20:57.512Z,48
2017-03-11T13:22:08.159Z,56
2017-03-11T13:23:18.090Z,52
2017-03-11T13:24:28.828Z,48
2017-03-11T13:25:38.811Z,40
2017-03-11T13:26:48.772Z,44
2017-03-11T13:27:59.418Z,48
2017-03-11T13:29:09.775Z,48
2017-03-11T13:30:19.721Z,40
2017-03-11T13:31:30.468Z,40
2017-03-11T13:32:40.438Z,36
2017-03-11T13:33:51.450Z,36
2017-03-11T13:35:02.171Z,36
2017-03-11T13:36:12.530Z,40
2017-03-11T13:37:22.103Z,48
2017-03-11T13:38:31.241Z,52
2017-03-11T13:39:41.491Z,52
2017-03-11T13:40:51.060Z,48
2017-03-11T13:42:01.376Z,52
2017-03-11T13:43:11.722Z,52
2017-03-11T13:44:21.687Z,52
2017-03-11T13:45:31.912Z,52
2017-03-11T13:46:42.245Z,52
2017-03-11T13:47:52.191Z,52
2017-03-11T13:49:01.766Z,52
2017-03-11T13:50:11.772Z,52
2017-03-11T13:51:22.406Z,52
2017-03-11T13:52:33.241Z,48
2017-03-11T13:53:44.042Z,48
2017-03-11T13:54:54.810Z,48
2017-03-11T13:56:05.560Z,44
2017-03-11T13:57:16.189Z,48
2017-03-11T13:58:26.587Z,44
2017-03-11T13:59:36.943Z,44
2017-03-11T14:00:46.901Z,36
2017-03-11T14:01:56.881Z,32
2017-03-11T14:03:07.143Z,32
2017-03-11T14:04:17.899Z,32
2017-03-11T14:05:28.674Z,32
2017-03-11T14:06:39.436Z,32
2017-03-11T14:07:50.202Z,32
2017-03-11T14:09:01.216Z,32
2017-03-11T14:10:11.971Z,28
2017-03-11T14:11:22.759Z,28
2017-03-11T14:12:33.510Z,32
2017-03-11T14:13:44.297Z,32
2017-03-11T14:14:55.350Z,32
2017-03-11T14:16:05.721Z,36
2017-03-11T14:17:16.109Z,40
2017-03-11T14:18:26.864Z,40
2017-03-11T14:19:37.642Z,40
2017-03-11T14:20:48.770Z,40
2017-03-11T14:21:59.559Z,36
2017-03-11T14:23:09.902Z,40
2017-03-11T14:24:20.256Z,40
2017-03-11T14:25:30.600Z,36
2017-03-11T14:26:41.257Z,36
2017-03-11T14:27:51.621Z,40
2017-03-11T14:29:02.006Z,40
2017-03-11T14:30:12.825Z,36
2017-03-11T14:31:23.205Z,36
2017-03-11T14:32:33.880Z,40
2017-03-11T14:33:43.843Z,40
2017-03-11T14:34:54.588Z,40
2017-03-11T14:36:04.953Z,36
2017-03-11T14:37:15.723Z,36
2017-03-11T14:38:26.325Z,36
2017-03-11T14:39:37.125Z,36
2017-03-11T14:40:47.935Z,32
2017-03-11T14:41:58.318Z,32
2017-03-11T14:43:09.114Z,32
2017-03-11T14:44:20.166Z,28
2017-03-11T14:45:30.547Z,28
2017-03-11T14:46:40.531Z,28
2017-03-11T14:47:50.889Z,28
2017-03-11T14:49:01.668Z,28
2017-03-11T14:50:12.334Z,24
2017-03-11T14:51:22.713Z,24
2017-03-11T14:52:33.485Z,24
2017-03-11T14:53:43.849Z,24
2017-03-11T14:54:54.245Z,24
2017-03-11T14:56:05.252Z,28
2017-03-11T14:57:15.617Z,24
2017-03-11T14:58:26.376Z,24
2017-03-11T14:59:36.745Z,28
2017-03-11T15:00:47.495Z,24
2017-03-11T15:01:58.172Z,28
2017-03-11T15:03:08.534Z,28
2017-03-11T15:04:18.508Z,24
2017-03-11T15:05:28.891Z,28
2017-03-11T15:06:39.648Z,28
2017-03-11T15:07:50.767Z,28
2017-03-11T15:09:01.608Z,28
2017-03-11T15:10:11.990Z,24
2017-03-11T15:11:22.354Z,28
2017-03-11T15:12:32.733Z,24
2017-03-11T15:13:43.782Z,24
2017-03-11T15:14:54.155Z,24
2017-03-11T15:16:04.927Z,24
2017-03-11T15:17:15.307Z,24
2017-03-11T15:18:26.107Z,20
2017-03-11T15:19:37.129Z,20
2017-03-11T15:20:47.906Z,24
2017-03-11T15:21:58.257Z,20
2017-03-11T15:23:08.229Z,20
2017-03-11T15:24:18.991Z,20
2017-03-11T15:25:29.826Z,20
2017-03-11T15:26:40.598Z,20
2017-03-11T15:27:51.343Z,20
2017-03-11T15:29:02.108Z,16
2017-03-11T15:30:12.474Z,20
2017-03-11T15:31:23.503Z,20
2017-03-11T15:32:33.922Z,20
2017-03-11T15:33:44.290Z,16
2017-03-11T15:34:54.674Z,20
2017-03-11T15:36:05.426Z,16
2017-03-11T15:37:16.057Z,16
2017-03-11T15:38:26.051Z,16
2017-03-11T15:39:36.009Z,16
2017-03-11T15:40:46.806Z,16
2017-03-11T15:41:56.786Z,16
2017-03-11T15:43:07.068Z,16
2017-03-11T15:44:17.845Z,16
2017-03-11T15:45:27.807Z,16
2017-03-11T15:46:38.207Z,12
2017-03-11T15:47:48.962Z,12
2017-03-11T15:49:00.038Z,12
2017-03-11T15:50:10.395Z,12
2017-03-11T15:51:20.386Z,12
2017-03-11T15:52:31.155Z,12
2017-03-11T15:53:41.158Z,12
2017-03-11T15:54:52.175Z,12
2017-03-11T15:56:02.931Z,12
2017-03-11T15:57:13.705Z,12
2017-03-11T15:59:33.000Z,12
2017-03-11T16:00:44.075Z,12
2017-03-11T16:01:54.418Z,12
2017-03-11T16:03:04.777Z,12
2017-03-11T16:04:16.948Z,12
2017-03-11T16:05:27.748Z,16
2017-03-11T16:06:38.823Z,12
2017-03-11T16:07:49.175Z,12
2017-03-11T16:08:59.961Z,12
2017-03-11T16:10:10.349Z,12
2017-03-11T16:11:20.321Z,12
2017-03-11T16:12:31.397Z,12
2017-03-11T16:13:41.780Z,12
2017-03-11T16:14:52.580Z,8
2017-03-11T16:16:02.958Z,12
2017-03-11T16:17:13.294Z,8
2017-03-11T16:18:23.896Z,12
2017-03-11T16:19:34.260Z,8
2017-03-11T16:20:44.212Z,8
2017-03-11T16:21:54.604Z,8
2017-03-11T16:23:04.939Z,8
2017-03-11T16:24:15.977Z,8
2017-03-11T16:25:26.735Z,4
2017-03-11T16:26:37.480Z,8
2017-03-11T16:27:48.235Z,8
2017-03-11T16:28:59.010Z,4
2017-03-11T16:30:10.095Z,4
2017-03-11T16:31:20.836Z,8
2017-03-11T16:32:31.561Z,4
2017-03-11T16:33:42.302Z,4
2017-03-11T16:34:53.100Z,4
2017-03-11T16:36:03.309Z,4
2017-03-11T16:37:14.056Z,8
2017-03-11T16:38:24.828Z,4
2017-03-11T16:39:35.595Z,4
2017-03-11T16:40:46.373Z,4
2017-03-11T16:41:57.051Z,4
2017-03-11T16:43:07.800Z,4
2017-03-11T16:44:18.557Z,4
2017-03-11T16:45:28.897Z,4
2017-03-11T16:46:39.265Z,4
2017-03-11T16:47:50.286Z,4
2017-03-11T16:49:00.634Z,4
2017-03-11T16:50:11.384Z,0
2017-03-11T16:51:22.170Z,0
2017-03-11T16:52:33.003Z,4
2017-03-11T16:53:43.656Z,4
2017-03-11T16:54:54.406Z,4
2017-03-11T16:56:05.177Z,4
2017-03-11T16:57:15.925Z,4
2017-03-11T16:58:26.681Z,0
2017-03-11T16:59:37.749Z,0
2017-03-11T17:00:48.495Z,0
2017-03-11T17:01:58.463Z,0
2017-03-11T17:03:08.844Z,0